sensor_id;sensor_type;location;lat;lon;timestamp;P1;durP1;ratioP1;P2;durP2;ratioP2
32613;SDS011;19031;51.400;6.770;2024-03-08T00:00:26;31.45;;;17.60;;
32613;SDS011;19031;51.400;6.770;2024-03-08T00:02:52;26.50;;;15.80;;
32613;SDS011;19031;51.400;6.770;2024-03-08T00:05:19;23.00;;;15.55;;
32613;SDS011;19031;51.400;6.770;2024-03-08T00:07:45;23.92;;;15.65;;
32613;SDS011;19031;51.400;6.770;2024-03-08T00:10:11;27.23;;;16.23;;
32613;SDS011;19031;51.400;6.770;2024-03-08T00:12:41;27.60;;;16.15;;
32613;SDS011;19031;51.400;6.770;2024-03-08T00:15:08;31.67;;;17.15;;
32613;SDS011;19031;51.400;6.770;2024-03-08T00:17:35;27.58;;;16.88;;
32613;SDS011;19031;51.400;6.770;2024-03-08T00:20:01;28.45;;;15.85;;
32613;SDS011;19031;51.400;6.770;2024-03-08T00:22:33;30.45;;;15.50;;
32613;SDS011;19031;51.400;6.770;2024-03-08T00:25:03;24.92;;;15.18;;
32613;SDS011;19031;51.400;6.770;2024-03-08T00:27:29;28.95;;;15.85;;
32613;SDS011;19031;51.400;6.770;2024-03-08T00:29:58;28.73;;;16.08;;
32613;SDS011;19031;51.400;6.770;2024-03-08T00:32:24;27.33;;;16.38;;
32613;SDS011;19031;51.400;6.770;2024-03-08T00:34:50;28.08;;;17.20;;
32613;SDS011;19031;51.400;6.770;2024-03-08T00:37:19;25.92;;;16.73;;
32613;SDS011;19031;51.400;6.770;2024-03-08T00:39:45;25.52;;;16.00;;
32613;SDS011;19031;51.400;6.770;2024-03-08T00:42:10;26.35;;;15.80;;
32613;SDS011;19031;51.400;6.770;2024-03-08T00:44:37;26.08;;;16.23;;
32613;SDS011;19031;51.400;6.770;2024-03-08T00:47:02;26.58;;;15.95;;
32613;SDS011;19031;51.400;6.770;2024-03-08T00:49:29;32.33;;;17.50;;
32613;SDS011;19031;51.400;6.770;2024-03-08T00:51:55;27.98;;;17.05;;
32613;SDS011;19031;51.400;6.770;2024-03-08T00:54:21;28.50;;;16.90;;
32613;SDS011;19031;51.400;6.770;2024-03-08T00:56:47;28.77;;;17.08;;
32613;SDS011;19031;51.400;6.770;2024-03-08T00:59:12;24.42;;;14.70;;
32613;SDS011;19031;51.400;6.770;2024-03-08T01:01:40;28.40;;;17.60;;
32613;SDS011;19031;51.400;6.770;2024-03-08T01:04:06;27.20;;;17.08;;
32613;SDS011;19031;51.400;6.770;2024-03-08T01:06:33;30.65;;;19.10;;
32613;SDS011;19031;51.400;6.770;2024-03-08T01:08:59;29.10;;;16.95;;
32613;SDS011;19031;51.400;6.770;2024-03-08T01:11:24;29.10;;;17.50;;
32613;SDS011;19031;51.400;6.770;2024-03-08T01:13:50;30.65;;;18.85;;
32613;SDS011;19031;51.400;6.770;2024-03-08T01:16:16;27.13;;;17.85;;
32613;SDS011;19031;51.400;6.770;2024-03-08T01:18:42;27.90;;;17.42;;
32613;SDS011;19031;51.400;6.770;2024-03-08T01:21:08;28.98;;;17.70;;
32613;SDS011;19031;51.400;6.770;2024-03-08T01:23:33;30.63;;;19.05;;
32613;SDS011;19031;51.400;6.770;2024-03-08T01:26:00;35.10;;;18.15;;
32613;SDS011;19031;51.400;6.770;2024-03-08T01:28:27;35.45;;;19.20;;
32613;SDS011;19031;51.400;6.770;2024-03-08T01:30:53;33.63;;;18.92;;
32613;SDS011;19031;51.400;6.770;2024-03-08T01:33:24;33.08;;;18.42;;
32613;SDS011;19031;51.400;6.770;2024-03-08T01:35:51;31.63;;;17.85;;
32613;SDS011;19031;51.400;6.770;2024-03-08T01:38:17;33.17;;;18.67;;
32613;SDS011;19031;51.400;6.770;2024-03-08T01:40:43;34.03;;;18.30;;
32613;SDS011;19031;51.400;6.770;2024-03-08T01:43:19;31.27;;;18.98;;
32613;SDS011;19031;51.400;6.770;2024-03-08T01:45:53;35.80;;;20.05;;
32613;SDS011;19031;51.400;6.770;2024-03-08T01:48:23;34.85;;;19.52;;
32613;SDS011;19031;51.400;6.770;2024-03-08T01:50:49;34.97;;;20.42;;
32613;SDS011;19031;51.400;6.770;2024-03-08T01:53:17;30.85;;;18.20;;
32613;SDS011;19031;51.400;6.770;2024-03-08T01:55:44;29.75;;;17.83;;
32613;SDS011;19031;51.400;6.770;2024-03-08T01:58:11;29.60;;;18.35;;
32613;SDS011;19031;51.400;6.770;2024-03-08T02:00:40;38.63;;;21.33;;
32613;SDS011;19031;51.400;6.770;2024-03-08T02:03:08;34.65;;;19.70;;
32613;SDS011;19031;51.400;6.770;2024-03-08T02:05:34;31.27;;;18.90;;
32613;SDS011;19031;51.400;6.770;2024-03-08T02:08:00;33.17;;;19.75;;
32613;SDS011;19031;51.400;6.770;2024-03-08T02:10:27;33.38;;;18.58;;
32613;SDS011;19031;51.400;6.770;2024-03-08T02:12:53;33.60;;;20.15;;
32613;SDS011;19031;51.400;6.770;2024-03-08T02:15:20;35.72;;;19.35;;
32613;SDS011;19031;51.400;6.770;2024-03-08T02:17:46;37.80;;;21.33;;
32613;SDS011;19031;51.400;6.770;2024-03-08T02:20:12;36.00;;;19.40;;
32613;SDS011;19031;51.400;6.770;2024-03-08T02:22:38;39.28;;;21.00;;
32613;SDS011;19031;51.400;6.770;2024-03-08T02:25:04;33.80;;;20.67;;
32613;SDS011;19031;51.400;6.770;2024-03-08T02:27:30;31.75;;;19.52;;
32613;SDS011;19031;51.400;6.770;2024-03-08T02:29:56;32.67;;;20.08;;
32613;SDS011;19031;51.400;6.770;2024-03-08T02:32:22;35.60;;;20.02;;
32613;SDS011;19031;51.400;6.770;2024-03-08T02:34:49;38.85;;;21.25;;
32613;SDS011;19031;51.400;6.770;2024-03-08T02:37:15;29.63;;;18.70;;
32613;SDS011;19031;51.400;6.770;2024-03-08T02:39:41;37.72;;;21.35;;
32613;SDS011;19031;51.400;6.770;2024-03-08T02:42:07;32.53;;;19.23;;
32613;SDS011;19031;51.400;6.770;2024-03-08T02:44:32;35.33;;;20.90;;
32613;SDS011;19031;51.400;6.770;2024-03-08T02:46:58;37.20;;;20.98;;
32613;SDS011;19031;51.400;6.770;2024-03-08T02:49:25;36.15;;;20.80;;
32613;SDS011;19031;51.400;6.770;2024-03-08T02:51:51;34.63;;;19.40;;
32613;SDS011;19031;51.400;6.770;2024-03-08T02:54:18;38.15;;;21.90;;
32613;SDS011;19031;51.400;6.770;2024-03-08T02:56:44;35.22;;;19.13;;
32613;SDS011;19031;51.400;6.770;2024-03-08T02:59:11;34.40;;;20.58;;
32613;SDS011;19031;51.400;6.770;2024-03-08T03:01:37;36.40;;;20.08;;
32613;SDS011;19031;51.400;6.770;2024-03-08T03:04:03;39.10;;;21.60;;
32613;SDS011;19031;51.400;6.770;2024-03-08T03:06:29;32.33;;;19.67;;
32613;SDS011;19031;51.400;6.770;2024-03-08T03:08:54;35.65;;;21.77;;
32613;SDS011;19031;51.400;6.770;2024-03-08T03:11:22;35.47;;;20.52;;
32613;SDS011;19031;51.400;6.770;2024-03-08T03:13:48;32.90;;;18.63;;
32613;SDS011;19031;51.400;6.770;2024-03-08T03:16:17;38.30;;;21.88;;
32613;SDS011;19031;51.400;6.770;2024-03-08T03:18:44;35.45;;;19.90;;
32613;SDS011;19031;51.400;6.770;2024-03-08T03:21:10;38.67;;;22.27;;
32613;SDS011;19031;51.400;6.770;2024-03-08T03:23:37;37.10;;;22.02;;
32613;SDS011;19031;51.400;6.770;2024-03-08T03:26:09;38.65;;;20.85;;
32613;SDS011;19031;51.400;6.770;2024-03-08T03:28:37;42.28;;;23.30;;
32613;SDS011;19031;51.400;6.770;2024-03-08T03:31:04;40.42;;;22.45;;
32613;SDS011;19031;51.400;6.770;2024-03-08T03:33:33;42.63;;;22.92;;
32613;SDS011;19031;51.400;6.770;2024-03-08T03:36:02;42.20;;;22.52;;
32613;SDS011;19031;51.400;6.770;2024-03-08T03:38:28;35.20;;;22.17;;
32613;SDS011;19031;51.400;6.770;2024-03-08T03:40:54;40.20;;;22.33;;
32613;SDS011;19031;51.400;6.770;2024-03-08T03:43:22;39.05;;;21.27;;
32613;SDS011;19031;51.400;6.770;2024-03-08T03:45:48;40.42;;;22.85;;
32613;SDS011;19031;51.400;6.770;2024-03-08T03:48:14;38.25;;;21.48;;
32613;SDS011;19031;51.400;6.770;2024-03-08T03:50:40;33.72;;;18.88;;
32613;SDS011;19031;51.400;6.770;2024-03-08T03:53:05;37.67;;;21.48;;
32613;SDS011;19031;51.400;6.770;2024-03-08T03:55:37;40.63;;;23.20;;
32613;SDS011;19031;51.400;6.770;2024-03-08T03:58:03;41.72;;;22.08;;
32613;SDS011;19031;51.400;6.770;2024-03-08T04:00:29;44.08;;;23.48;;
32613;SDS011;19031;51.400;6.770;2024-03-08T04:02:54;45.03;;;24.63;;
32613;SDS011;19031;51.400;6.770;2024-03-08T04:05:23;40.85;;;23.08;;
32613;SDS011;19031;51.400;6.770;2024-03-08T04:07:49;41.40;;;22.55;;
32613;SDS011;19031;51.400;6.770;2024-03-08T04:10:15;37.13;;;21.50;;
32613;SDS011;19031;51.400;6.770;2024-03-08T04:12:40;45.22;;;24.08;;
32613;SDS011;19031;51.400;6.770;2024-03-08T04:15:06;42.70;;;23.38;;
32613;SDS011;19031;51.400;6.770;2024-03-08T04:17:35;47.88;;;24.35;;
32613;SDS011;19031;51.400;6.770;2024-03-08T04:20:02;42.13;;;22.42;;
32613;SDS011;19031;51.400;6.770;2024-03-08T04:22:34;41.97;;;23.58;;
32613;SDS011;19031;51.400;6.770;2024-03-08T04:25:01;40.00;;;22.75;;
32613;SDS011;19031;51.400;6.770;2024-03-08T04:27:27;46.03;;;22.77;;
32613;SDS011;19031;51.400;6.770;2024-03-08T04:29:52;41.60;;;23.48;;
32613;SDS011;19031;51.400;6.770;2024-03-08T04:32:18;51.10;;;24.60;;
32613;SDS011;19031;51.400;6.770;2024-03-08T04:34:43;42.25;;;23.48;;
32613;SDS011;19031;51.400;6.770;2024-03-08T04:37:09;42.58;;;24.73;;
32613;SDS011;19031;51.400;6.770;2024-03-08T04:39:38;41.42;;;24.05;;
32613;SDS011;19031;51.400;6.770;2024-03-08T04:42:04;41.58;;;22.42;;
32613;SDS011;19031;51.400;6.770;2024-03-08T04:44:34;41.13;;;23.35;;
32613;SDS011;19031;51.400;6.770;2024-03-08T04:47:01;45.20;;;24.38;;
32613;SDS011;19031;51.400;6.770;2024-03-08T04:49:26;40.45;;;23.08;;
32613;SDS011;19031;51.400;6.770;2024-03-08T04:51:53;45.10;;;24.05;;
32613;SDS011;19031;51.400;6.770;2024-03-08T04:54:18;42.83;;;23.63;;
32613;SDS011;19031;51.400;6.770;2024-03-08T04:56:44;46.15;;;25.23;;
32613;SDS011;19031;51.400;6.770;2024-03-08T04:59:09;43.53;;;23.75;;
32613;SDS011;19031;51.400;6.770;2024-03-08T05:01:35;46.33;;;26.60;;
32613;SDS011;19031;51.400;6.770;2024-03-08T05:04:02;47.15;;;24.15;;
32613;SDS011;19031;51.400;6.770;2024-03-08T05:06:28;42.65;;;22.55;;
32613;SDS011;19031;51.400;6.770;2024-03-08T05:08:55;43.15;;;23.52;;
32613;SDS011;19031;51.400;6.770;2024-03-08T05:11:21;45.72;;;24.38;;
32613;SDS011;19031;51.400;6.770;2024-03-08T05:13:46;49.78;;;25.27;;
32613;SDS011;19031;51.400;6.770;2024-03-08T05:16:12;48.75;;;25.75;;
32613;SDS011;19031;51.400;6.770;2024-03-08T05:18:40;45.17;;;24.67;;
32613;SDS011;19031;51.400;6.770;2024-03-08T05:21:07;43.42;;;23.73;;
32613;SDS011;19031;51.400;6.770;2024-03-08T05:23:34;46.83;;;25.65;;
32613;SDS011;19031;51.400;6.770;2024-03-08T05:26:00;42.92;;;23.70;;
32613;SDS011;19031;51.400;6.770;2024-03-08T05:28:26;46.75;;;24.38;;
32613;SDS011;19031;51.400;6.770;2024-03-08T05:30:51;51.13;;;26.95;;
32613;SDS011;19031;51.400;6.770;2024-03-08T05:33:17;45.17;;;25.02;;
32613;SDS011;19031;51.400;6.770;2024-03-08T05:35:44;46.97;;;26.13;;
32613;SDS011;19031;51.400;6.770;2024-03-08T05:38:09;44.95;;;24.90;;
32613;SDS011;19031;51.400;6.770;2024-03-08T05:40:37;40.75;;;23.23;;
32613;SDS011;19031;51.400;6.770;2024-03-08T05:43:03;44.17;;;24.70;;
32613;SDS011;19031;51.400;6.770;2024-03-08T05:45:29;47.95;;;25.13;;
32613;SDS011;19031;51.400;6.770;2024-03-08T05:47:54;48.88;;;25.48;;
32613;SDS011;19031;51.400;6.770;2024-03-08T05:50:20;47.28;;;25.75;;
32613;SDS011;19031;51.400;6.770;2024-03-08T05:52:45;42.97;;;24.17;;
32613;SDS011;19031;51.400;6.770;2024-03-08T05:55:12;41.65;;;23.50;;
32613;SDS011;19031;51.400;6.770;2024-03-08T05:57:39;45.72;;;25.20;;
32613;SDS011;19031;51.400;6.770;2024-03-08T06:00:05;49.47;;;25.60;;
32613;SDS011;19031;51.400;6.770;2024-03-08T06:02:31;47.13;;;25.75;;
32613;SDS011;19031;51.400;6.770;2024-03-08T06:04:57;48.53;;;27.58;;
32613;SDS011;19031;51.400;6.770;2024-03-08T06:07:23;45.28;;;25.05;;
32613;SDS011;19031;51.400;6.770;2024-03-08T06:09:48;52.42;;;26.15;;
32613;SDS011;19031;51.400;6.770;2024-03-08T06:12:15;50.65;;;26.40;;
32613;SDS011;19031;51.400;6.770;2024-03-08T06:14:44;52.78;;;26.05;;
32613;SDS011;19031;51.400;6.770;2024-03-08T06:17:10;56.85;;;26.98;;
32613;SDS011;19031;51.400;6.770;2024-03-08T06:19:36;50.00;;;25.20;;
32613;SDS011;19031;51.400;6.770;2024-03-08T06:22:02;52.10;;;26.77;;
32613;SDS011;19031;51.400;6.770;2024-03-08T06:24:30;43.78;;;25.38;;
32613;SDS011;19031;51.400;6.770;2024-03-08T06:26:57;49.28;;;27.80;;
32613;SDS011;19031;51.400;6.770;2024-03-08T06:29:22;49.90;;;26.20;;
32613;SDS011;19031;51.400;6.770;2024-03-08T06:31:48;49.55;;;26.95;;
32613;SDS011;19031;51.400;6.770;2024-03-08T06:34:14;50.95;;;26.88;;
32613;SDS011;19031;51.400;6.770;2024-03-08T06:36:40;53.67;;;28.40;;
32613;SDS011;19031;51.400;6.770;2024-03-08T06:39:05;51.80;;;27.70;;
32613;SDS011;19031;51.400;6.770;2024-03-08T06:41:35;48.65;;;25.58;;
32613;SDS011;19031;51.400;6.770;2024-03-08T06:44:01;51.55;;;29.70;;
32613;SDS011;19031;51.400;6.770;2024-03-08T06:46:26;60.00;;;28.85;;
32613;SDS011;19031;51.400;6.770;2024-03-08T06:48:53;57.40;;;27.65;;
32613;SDS011;19031;51.400;6.770;2024-03-08T06:51:18;52.38;;;27.40;;
32613;SDS011;19031;51.400;6.770;2024-03-08T06:53:44;55.05;;;28.17;;
32613;SDS011;19031;51.400;6.770;2024-03-08T06:56:10;53.20;;;28.95;;
32613;SDS011;19031;51.400;6.770;2024-03-08T06:58:35;46.63;;;26.15;;
32613;SDS011;19031;51.400;6.770;2024-03-08T07:01:01;41.70;;;23.58;;
32613;SDS011;19031;51.400;6.770;2024-03-08T07:03:29;40.55;;;23.08;;
32613;SDS011;19031;51.400;6.770;2024-03-08T07:05:55;41.70;;;23.52;;
32613;SDS011;19031;51.400;6.770;2024-03-08T07:08:23;45.30;;;23.17;;
32613;SDS011;19031;51.400;6.770;2024-03-08T07:10:48;37.45;;;21.25;;
32613;SDS011;19031;51.400;6.770;2024-03-08T07:13:14;43.00;;;21.98;;
32613;SDS011;19031;51.400;6.770;2024-03-08T07:15:40;38.25;;;22.35;;
32613;SDS011;19031;51.400;6.770;2024-03-08T07:18:05;37.92;;;22.33;;
32613;SDS011;19031;51.400;6.770;2024-03-08T07:20:34;34.42;;;19.17;;
32613;SDS011;19031;51.400;6.770;2024-03-08T07:23:00;38.72;;;21.88;;
32613;SDS011;19031;51.400;6.770;2024-03-08T07:25:26;40.70;;;20.70;;
32613;SDS011;19031;51.400;6.770;2024-03-08T07:27:54;42.60;;;22.25;;
32613;SDS011;19031;51.400;6.770;2024-03-08T07:30:21;32.67;;;20.00;;
32613;SDS011;19031;51.400;6.770;2024-03-08T07:33:06;32.35;;;20.30;;
32613;SDS011;19031;51.400;6.770;2024-03-08T07:35:32;40.45;;;21.02;;
32613;SDS011;19031;51.400;6.770;2024-03-08T07:38:07;38.05;;;19.92;;
32613;SDS011;19031;51.400;6.770;2024-03-08T07:40:40;32.08;;;19.00;;
32613;SDS011;19031;51.400;6.770;2024-03-08T07:43:09;33.50;;;20.02;;
32613;SDS011;19031;51.400;6.770;2024-03-08T07:45:36;34.97;;;20.60;;
32613;SDS011;19031;51.400;6.770;2024-03-08T07:48:02;33.28;;;19.48;;
32613;SDS011;19031;51.400;6.770;2024-03-08T07:50:28;31.67;;;19.27;;
32613;SDS011;19031;51.400;6.770;2024-03-08T07:52:54;34.47;;;19.48;;
32613;SDS011;19031;51.400;6.770;2024-03-08T07:55:19;35.53;;;19.85;;
32613;SDS011;19031;51.400;6.770;2024-03-08T07:57:47;39.75;;;19.60;;
32613;SDS011;19031;51.400;6.770;2024-03-08T08:00:13;30.15;;;18.55;;
32613;SDS011;19031;51.400;6.770;2024-03-08T08:02:42;32.33;;;19.02;;
32613;SDS011;19031;51.400;6.770;2024-03-08T08:05:11;30.40;;;18.45;;
32613;SDS011;19031;51.400;6.770;2024-03-08T08:07:37;27.92;;;17.85;;
32613;SDS011;19031;51.400;6.770;2024-03-08T08:10:02;32.75;;;19.13;;
32613;SDS011;19031;51.400;6.770;2024-03-08T08:12:30;31.10;;;19.45;;
32613;SDS011;19031;51.400;6.770;2024-03-08T08:14:59;30.48;;;19.42;;
32613;SDS011;19031;51.400;6.770;2024-03-08T08:17:24;29.95;;;17.15;;
32613;SDS011;19031;51.400;6.770;2024-03-08T08:19:50;26.63;;;17.85;;
32613;SDS011;19031;51.400;6.770;2024-03-08T08:22:15;30.30;;;18.45;;
32613;SDS011;19031;51.400;6.770;2024-03-08T08:24:43;29.25;;;17.08;;
32613;SDS011;19031;51.400;6.770;2024-03-08T08:27:09;30.08;;;17.13;;
32613;SDS011;19031;51.400;6.770;2024-03-08T08:29:36;27.20;;;16.80;;
32613;SDS011;19031;51.400;6.770;2024-03-08T08:32:02;25.35;;;15.55;;
32613;SDS011;19031;51.400;6.770;2024-03-08T08:34:28;30.75;;;16.55;;
32613;SDS011;19031;51.400;6.770;2024-03-08T08:36:55;28.35;;;17.00;;
32613;SDS011;19031;51.400;6.770;2024-03-08T08:39:20;28.92;;;17.48;;
32613;SDS011;19031;51.400;6.770;2024-03-08T08:41:47;25.45;;;16.75;;
32613;SDS011;19031;51.400;6.770;2024-03-08T08:44:13;29.20;;;17.38;;
32613;SDS011;19031;51.400;6.770;2024-03-08T08:46:40;24.83;;;15.18;;
32613;SDS011;19031;51.400;6.770;2024-03-08T08:49:05;27.48;;;16.80;;
32613;SDS011;19031;51.400;6.770;2024-03-08T08:51:33;27.25;;;17.17;;
32613;SDS011;19031;51.400;6.770;2024-03-08T08:53:59;32.03;;;16.60;;
32613;SDS011;19031;51.400;6.770;2024-03-08T08:56:25;24.80;;;15.02;;
32613;SDS011;19031;51.400;6.770;2024-03-08T08:58:51;25.17;;;16.23;;
32613;SDS011;19031;51.400;6.770;2024-03-08T09:01:18;26.38;;;16.92;;
32613;SDS011;19031;51.400;6.770;2024-03-08T09:03:44;27.30;;;17.20;;
32613;SDS011;19031;51.400;6.770;2024-03-08T09:06:12;24.08;;;16.13;;
32613;SDS011;19031;51.400;6.770;2024-03-08T09:08:38;26.70;;;16.85;;
32613;SDS011;19031;51.400;6.770;2024-03-08T09:11:04;27.95;;;18.13;;
32613;SDS011;19031;51.400;6.770;2024-03-08T09:13:30;22.30;;;15.23;;
32613;SDS011;19031;51.400;6.770;2024-03-08T09:15:58;27.60;;;16.65;;
32613;SDS011;19031;51.400;6.770;2024-03-08T09:18:23;27.23;;;16.58;;
32613;SDS011;19031;51.400;6.770;2024-03-08T09:20:49;28.27;;;17.50;;
32613;SDS011;19031;51.400;6.770;2024-03-08T09:23:14;28.42;;;17.70;;
32613;SDS011;19031;51.400;6.770;2024-03-08T09:25:41;26.42;;;17.70;;
32613;SDS011;19031;51.400;6.770;2024-03-08T09:28:08;24.05;;;16.27;;
32613;SDS011;19031;51.400;6.770;2024-03-08T09:30:36;24.92;;;16.88;;
32613;SDS011;19031;51.400;6.770;2024-03-08T09:33:03;29.30;;;17.95;;
32613;SDS011;19031;51.400;6.770;2024-03-08T09:35:29;27.25;;;18.52;;
32613;SDS011;19031;51.400;6.770;2024-03-08T09:37:55;26.23;;;16.90;;
32613;SDS011;19031;51.400;6.770;2024-03-08T09:40:21;26.75;;;17.00;;
32613;SDS011;19031;51.400;6.770;2024-03-08T09:42:49;27.50;;;17.45;;
32613;SDS011;19031;51.400;6.770;2024-03-08T09:45:15;28.38;;;17.63;;
32613;SDS011;19031;51.400;6.770;2024-03-08T09:47:42;29.50;;;17.35;;
32613;SDS011;19031;51.400;6.770;2024-03-08T09:50:09;25.75;;;17.38;;
32613;SDS011;19031;51.400;6.770;2024-03-08T09:52:36;24.95;;;16.77;;
32613;SDS011;19031;51.400;6.770;2024-03-08T09:55:03;24.88;;;16.45;;
32613;SDS011;19031;51.400;6.770;2024-03-08T09:57:31;22.58;;;15.70;;
32613;SDS011;19031;51.400;6.770;2024-03-08T10:00:01;27.08;;;16.83;;
32613;SDS011;19031;51.400;6.770;2024-03-08T10:02:31;24.33;;;16.05;;
32613;SDS011;19031;51.400;6.770;2024-03-08T10:04:59;23.90;;;16.30;;
32613;SDS011;19031;51.400;6.770;2024-03-08T10:07:28;27.15;;;16.50;;
32613;SDS011;19031;51.400;6.770;2024-03-08T10:09:54;24.48;;;15.80;;
32613;SDS011;19031;51.400;6.770;2024-03-08T10:12:19;25.00;;;16.35;;
32613;SDS011;19031;51.400;6.770;2024-03-08T10:14:45;29.35;;;17.10;;
32613;SDS011;19031;51.400;6.770;2024-03-08T10:17:11;22.63;;;15.35;;
32613;SDS011;19031;51.400;6.770;2024-03-08T10:19:37;26.88;;;16.70;;
32613;SDS011;19031;51.400;6.770;2024-03-08T10:22:04;24.17;;;15.43;;
32613;SDS011;19031;51.400;6.770;2024-03-08T10:24:31;26.15;;;16.35;;
32613;SDS011;19031;51.400;6.770;2024-03-08T10:26:59;29.75;;;16.08;;
32613;SDS011;19031;51.400;6.770;2024-03-08T10:29:27;21.00;;;14.90;;
32613;SDS011;19031;51.400;6.770;2024-03-08T10:31:53;22.55;;;14.45;;
32613;SDS011;19031;51.400;6.770;2024-03-08T10:34:20;20.92;;;14.63;;
32613;SDS011;19031;51.400;6.770;2024-03-08T10:36:48;22.58;;;16.25;;
32613;SDS011;19031;51.400;6.770;2024-03-08T10:39:25;21.85;;;15.48;;
32613;SDS011;19031;51.400;6.770;2024-03-08T10:41:56;23.85;;;15.43;;
32613;SDS011;19031;51.400;6.770;2024-03-08T10:47:01;24.60;;;15.45;;
32613;SDS011;19031;51.400;6.770;2024-03-08T10:49:51;19.20;;;14.52;;
32613;SDS011;19031;51.400;6.770;2024-03-08T10:52:19;18.27;;;11.82;;
32613;SDS011;19031;51.400;6.770;2024-03-08T10:54:45;15.75;;;11.15;;
32613;SDS011;19031;51.400;6.770;2024-03-08T10:57:13;15.32;;;10.43;;
32613;SDS011;19031;51.400;6.770;2024-03-08T10:59:42;13.48;;;10.27;;
32613;SDS011;19031;51.400;6.770;2024-03-08T11:02:08;14.57;;;9.95;;
32613;SDS011;19031;51.400;6.770;2024-03-08T11:04:37;14.82;;;10.18;;
32613;SDS011;19031;51.400;6.770;2024-03-08T11:07:03;14.52;;;10.15;;
32613;SDS011;19031;51.400;6.770;2024-03-08T11:14:50;11.52;;;8.38;;
32613;SDS011;19031;51.400;6.770;2024-03-08T11:17:21;13.18;;;8.93;;
32613;SDS011;19031;51.400;6.770;2024-03-08T11:19:52;13.65;;;9.98;;
32613;SDS011;19031;51.400;6.770;2024-03-08T11:22:22;11.90;;;8.23;;
32613;SDS011;19031;51.400;6.770;2024-03-08T11:24:52;14.73;;;10.13;;
32613;SDS011;19031;51.400;6.770;2024-03-08T11:27:18;14.82;;;9.85;;
32613;SDS011;19031;51.400;6.770;2024-03-08T11:29:45;13.55;;;9.60;;
32613;SDS011;19031;51.400;6.770;2024-03-08T11:32:27;13.13;;;9.20;;
32613;SDS011;19031;51.400;6.770;2024-03-08T11:34:54;13.85;;;9.38;;
32613;SDS011;19031;51.400;6.770;2024-03-08T11:37:20;12.07;;;8.90;;
32613;SDS011;19031;51.400;6.770;2024-03-08T11:39:49;14.90;;;9.85;;
32613;SDS011;19031;51.400;6.770;2024-03-08T11:42:17;14.15;;;10.32;;
32613;SDS011;19031;51.400;6.770;2024-03-08T11:44:44;14.68;;;9.48;;
32613;SDS011;19031;51.400;6.770;2024-03-08T11:47:10;16.70;;;9.57;;
32613;SDS011;19031;51.400;6.770;2024-03-08T11:49:37;11.65;;;8.88;;
32613;SDS011;19031;51.400;6.770;2024-03-08T11:52:04;16.38;;;11.13;;
32613;SDS011;19031;51.400;6.770;2024-03-08T11:54:30;16.73;;;11.10;;
32613;SDS011;19031;51.400;6.770;2024-03-08T11:56:59;16.45;;;10.98;;
32613;SDS011;19031;51.400;6.770;2024-03-08T11:59:28;14.77;;;10.02;;
32613;SDS011;19031;51.400;6.770;2024-03-08T12:02:01;16.02;;;10.40;;
32613;SDS011;19031;51.400;6.770;2024-03-08T12:04:30;15.40;;;9.95;;
32613;SDS011;19031;51.400;6.770;2024-03-08T12:07:00;13.73;;;9.40;;
32613;SDS011;19031;51.400;6.770;2024-03-08T12:09:27;15.48;;;9.40;;
32613;SDS011;19031;51.400;6.770;2024-03-08T12:11:53;12.07;;;9.50;;
32613;SDS011;19031;51.400;6.770;2024-03-08T12:14:18;14.45;;;10.07;;
32613;SDS011;19031;51.400;6.770;2024-03-08T12:16:45;13.63;;;9.13;;
32613;SDS011;19031;51.400;6.770;2024-03-08T12:19:10;14.27;;;10.07;;
32613;SDS011;19031;51.400;6.770;2024-03-08T12:21:37;16.20;;;9.25;;
32613;SDS011;19031;51.400;6.770;2024-03-08T12:26:29;15.50;;;9.00;;
32613;SDS011;19031;51.400;6.770;2024-03-08T12:29:09;12.40;;;8.52;;
32613;SDS011;19031;51.400;6.770;2024-03-08T12:31:45;13.43;;;9.52;;
32613;SDS011;19031;51.400;6.770;2024-03-08T12:34:16;10.90;;;8.15;;
32613;SDS011;19031;51.400;6.770;2024-03-08T12:36:45;21.10;;;13.02;;
32613;SDS011;19031;51.400;6.770;2024-03-08T12:39:12;22.75;;;16.67;;
32613;SDS011;19031;51.400;6.770;2024-03-08T12:41:41;24.95;;;15.95;;
32613;SDS011;19031;51.400;6.770;2024-03-08T12:44:06;20.70;;;15.65;;
32613;SDS011;19031;51.400;6.770;2024-03-08T12:46:39;21.38;;;16.13;;
32613;SDS011;19031;51.400;6.770;2024-03-08T12:49:09;21.35;;;14.82;;
32613;SDS011;19031;51.400;6.770;2024-03-08T12:51:35;28.65;;;16.60;;
32613;SDS011;19031;51.400;6.770;2024-03-08T12:54:04;15.07;;;10.65;;
32613;SDS011;19031;51.400;6.770;2024-03-08T12:56:32;12.50;;;9.02;;
32613;SDS011;19031;51.400;6.770;2024-03-08T12:58:59;11.73;;;8.40;;
32613;SDS011;19031;51.400;6.770;2024-03-08T13:01:26;14.02;;;8.48;;
32613;SDS011;19031;51.400;6.770;2024-03-08T13:03:52;14.50;;;9.20;;
32613;SDS011;19031;51.400;6.770;2024-03-08T13:06:18;12.70;;;8.77;;
32613;SDS011;19031;51.400;6.770;2024-03-08T13:08:46;11.45;;;7.95;;
32613;SDS011;19031;51.400;6.770;2024-03-08T13:11:13;10.02;;;7.45;;
32613;SDS011;19031;51.400;6.770;2024-03-08T13:13:42;11.95;;;8.35;;
32613;SDS011;19031;51.400;6.770;2024-03-08T13:16:09;10.55;;;7.95;;
32613;SDS011;19031;51.400;6.770;2024-03-08T13:18:36;11.05;;;8.07;;
32613;SDS011;19031;51.400;6.770;2024-03-08T13:21:02;9.15;;;6.82;;
32613;SDS011;19031;51.400;6.770;2024-03-08T13:23:31;8.68;;;7.00;;
32613;SDS011;19031;51.400;6.770;2024-03-08T13:25:58;9.57;;;7.43;;
32613;SDS011;19031;51.400;6.770;2024-03-08T13:28:24;9.52;;;6.82;;
32613;SDS011;19031;51.400;6.770;2024-03-08T13:30:54;11.35;;;7.50;;
32613;SDS011;19031;51.400;6.770;2024-03-08T13:33:22;10.55;;;6.90;;
32613;SDS011;19031;51.400;6.770;2024-03-08T13:35:48;9.95;;;7.68;;
32613;SDS011;19031;51.400;6.770;2024-03-08T13:38:15;9.57;;;7.35;;
32613;SDS011;19031;51.400;6.770;2024-03-08T13:40:43;9.55;;;7.07;;
32613;SDS011;19031;51.400;6.770;2024-03-08T13:43:08;10.90;;;7.25;;
32613;SDS011;19031;51.400;6.770;2024-03-08T13:45:34;9.43;;;7.10;;
32613;SDS011;19031;51.400;6.770;2024-03-08T13:48:03;11.70;;;8.52;;
32613;SDS011;19031;51.400;6.770;2024-03-08T13:50:29;12.27;;;7.68;;
32613;SDS011;19031;51.400;6.770;2024-03-08T13:52:55;10.23;;;7.65;;
32613;SDS011;19031;51.400;6.770;2024-03-08T13:55:21;10.95;;;7.65;;
32613;SDS011;19031;51.400;6.770;2024-03-08T13:57:47;9.25;;;6.82;;
32613;SDS011;19031;51.400;6.770;2024-03-08T14:00:13;11.25;;;7.93;;
32613;SDS011;19031;51.400;6.770;2024-03-08T14:02:40;10.95;;;7.15;;
32613;SDS011;19031;51.400;6.770;2024-03-08T14:05:06;9.57;;;7.15;;
32613;SDS011;19031;51.400;6.770;2024-03-08T14:07:34;13.80;;;8.52;;
32613;SDS011;19031;51.400;6.770;2024-03-08T14:10:00;13.68;;;8.52;;
32613;SDS011;19031;51.400;6.770;2024-03-08T14:12:25;11.63;;;7.30;;
32613;SDS011;19031;51.400;6.770;2024-03-08T14:14:51;9.88;;;7.00;;
32613;SDS011;19031;51.400;6.770;2024-03-08T14:17:17;11.98;;;7.50;;
32613;SDS011;19031;51.400;6.770;2024-03-08T14:19:43;10.80;;;7.18;;
32613;SDS011;19031;51.400;6.770;2024-03-08T14:22:09;13.60;;;8.05;;
32613;SDS011;19031;51.400;6.770;2024-03-08T14:24:39;11.45;;;7.00;;
32613;SDS011;19031;51.400;6.770;2024-03-08T14:27:07;11.43;;;7.47;;
32613;SDS011;19031;51.400;6.770;2024-03-08T14:29:34;10.00;;;7.22;;
32613;SDS011;19031;51.400;6.770;2024-03-08T14:32:00;13.02;;;7.60;;